Latest Weather Observations for Eucla

IDW60801

Issued at 2:02 pm WST Thursday 29 January 2015 (issued every 30 minutes, with the page automatically refreshed every 10 minutes)

About weather observations | Map of weather stations | Latest weather observations for WA | Other Formats
Station Details ID: 011003 Name: EUCLA Lat: -31.68 Lon: 128.90 Height: 93.1 m
Data from the previous 72 hours. | See also: Recent months at Eucla
Date/Time
WST
Temp
°C
App
Temp
°C
Dew
Point
Rel
Hum
%
Delta-T
°C
Wind Press
QNH
hPa
Press
MSL
hPa
Rain
since 9 am
mm
Dir
 
Spd
km/h
Gust
km/h
Spd
kts
Gust
kts
29/02:00pm 22.6 19.6 15.9 66 4.1 ESE 26 37 14 20 1014.0 1013.7 0.0
29/01:30pm 22.3 18.8 15.4 65 4.1 ESE 28 41 15 22 1014.3 1014.0 0.0
29/01:00pm 23.0 20.5 16.1 65 4.2 ESE 24 41 13 22 1014.5 1014.2 0.0
29/12:30pm 23.0 19.9 15.6 63 4.5 ESE 26 37 14 20 1015.0 1014.7 0.0
29/12:00pm 22.9 19.8 15.7 64 4.3 ESE 26 39 14 21 1015.4 1015.1 0.0
29/11:30am 23.4 20.1 16.0 63 4.5 ESE 28 39 15 21 1015.4 1015.1 0.0
29/11:00am 22.5 19.4 15.6 65 4.1 ESE 26 39 14 21 1015.7 1015.4 0.0
29/10:30am 23.4 20.3 15.7 62 4.7 ESE 26 37 14 20 1015.9 1015.6 0.0
29/10:00am 23.0 20.4 15.8 64 4.4 ESE 24 37 13 20 1016.2 1015.9 0.0
29/09:30am 22.5 19.7 15.4 64 4.3 ESE 24 37 13 20 1016.3 1016.0 0.0
29/09:00am 21.9 19.9 15.5 67 3.8 ESE 20 33 11 18 1016.2 1015.9 0.0
29/08:30am 22.0 20.0 15.4 66 4.0 E 20 33 11 18 1016.3 1016.0 0.0
29/08:00am 21.9 19.5 15.5 67 3.8 ESE 22 33 12 18 1016.3 1016.0 0.0
29/07:30am 21.1 18.8 14.7 67 3.8 E 20 32 11 17 1016.2 1015.9 0.0
29/07:00am 20.9 19.1 15.4 71 3.3 E 19 32 10 17 1016.0 1015.7 0.0
29/06:30am 20.1 18.0 15.1 73 3.0 E 20 32 11 17 1015.7 1015.4 0.0
29/06:00am 19.2 17.9 14.9 76 2.5 E 15 26 8 14 1015.4 1015.1 0.0
29/05:30am 18.4 17.0 14.5 78 2.3 E 15 24 8 13 1015.0 1014.7 0.0
29/05:00am 17.5 15.3 14.4 82 1.8 E 19 26 10 14 1014.4 1014.1 0.0
29/04:30am 17.2 15.3 14.1 82 1.8 E 17 30 9 16 1014.1 1013.8 0.0
29/04:00am 17.1 15.5 14.0 82 1.8 E 15 22 8 12 1014.1 1013.8 0.0
29/03:30am 17.3 15.3 14.0 81 1.9 E 17 26 9 14 1014.1 1013.8 0.0
29/03:00am 17.2 15.7 14.1 82 1.8 E 15 26 8 14 1014.1 1013.8 0.0
29/02:30am 17.1 14.7 13.8 81 1.9 ESE 19 32 10 17 1013.8 1013.5 0.0
29/02:00am 17.1 15.0 13.6 80 2.0 ESE 17 26 9 14 1014.3 1014.0 0.0
29/01:30am 17.1 14.9 13.4 79 2.1 E 17 24 9 13 1014.6 1014.3 0.0
29/01:00am 17.0 15.2 13.3 79 2.1 E 15 22 8 12 1014.9 1014.6 0.0
29/12:30am 17.4 15.5 13.1 76 2.4 ESE 15 20 8 11 1015.2 1014.9 0.0
29/12:00am 17.5 15.6 13.0 75 2.5 ESE 15 26 8 14 1015.3 1015.0 0.0
 
Date/Time
WST
Temp
°C
App
Temp
°C
Dew
Point
Rel
Hum
%
Delta-T
°C
Wind Press
QNH
hPa
Press
MSL
hPa
Rain
since 9 am
mm
Dir
 
Spd
km/h
Gust
km/h
Spd
kts
Gust
kts
28/11:30pm 17.9 16.5 13.4 75 2.6 E 13 24 7 13 1015.5 1015.2 0.0
28/11:00pm 17.7 15.1 13.2 75 2.5 ESE 19 30 10 16 1015.6 1015.3 0.0
28/10:30pm 17.7 15.0 13.0 74 2.6 ESE 19 28 10 15 1015.8 1015.5 0.0
28/10:00pm 18.0 16.2 13.3 74 2.7 E 15 26 8 14 1016.1 1015.8 0.0
28/09:30pm 17.9 15.0 12.8 72 2.9 ESE 20 35 11 19 1016.4 1016.1 0.0
28/09:00pm 17.9 15.0 12.8 72 2.9 ESE 20 32 11 17 1016.5 1016.2 0.0
28/08:30pm 18.3 16.0 13.0 71 3.0 ESE 17 30 9 16 1016.6 1016.3 0.0
28/08:00pm 18.1 14.9 13.0 72 2.9 ESE 22 35 12 19 1016.3 1016.0 0.0
28/07:30pm 18.1 15.2 13.0 72 2.9 ESE 20 32 11 17 1016.3 1016.0 0.0
28/07:00pm 18.4 15.7 13.0 71 3.0 ESE 19 32 10 17 1016.3 1016.0 0.0
28/06:30pm 18.6 15.0 13.2 71 3.1 ESE 24 35 13 19 1016.1 1015.8 0.0
28/06:00pm 18.9 15.7 13.1 69 3.3 ESE 22 35 12 19 1015.9 1015.6 0.0
28/05:30pm 19.1 15.2 13.3 69 3.3 ESE 26 39 14 21 1015.7 1015.4 0.0
28/05:00pm 19.6 15.1 12.6 64 3.9 ESE 28 41 15 22 1015.4 1015.1 0.0
28/04:30pm 20.3 15.6 13.3 64 4.0 ESE 30 43 16 23 1015.2 1014.9 0.0
28/04:00pm 21.1 16.9 13.5 62 4.4 ESE 28 41 15 22 1015.3 1015.0 0.0
28/03:30pm 20.7 17.0 13.9 65 3.9 ESE 26 39 14 21 1015.6 1015.3 0.0
28/03:00pm 21.7 17.4 13.1 58 4.9 ESE 28 41 15 22 1015.8 1015.5 0.0
28/02:31pm 21.9 17.8 13.8 60 4.7 E 28 46 15 25 1015.8 1015.5 0.0
28/02:30pm 22.0 18.3 13.9 60 4.7 E 26 46 14 25 1015.8 1015.5 0.0
28/02:10pm 22.3 18.1 13.6 58 5.1 ESE 28 46 15 25 1015.9 1015.6 0.0
28/02:00pm 21.9 17.3 13.5 59 4.9 ESE 30 44 16 24 1015.9 1015.6 0.0
28/01:30pm 22.0 17.8 13.4 58 5.0 ESE 28 43 15 23 1015.9 1015.6 0.0
28/01:12pm 21.9 17.5 13.0 57 5.1 ESE 28 46 15 25 1016.2 1015.9 0.0
28/01:00pm 22.3 17.7 13.4 57 5.2 ESE 30 43 16 23 1016.2 1015.9 0.0
28/12:30pm 22.0 17.4 13.6 59 4.9 ESE 30 41 16 22 1016.6 1016.3 0.0
28/12:00pm 22.9 18.3 13.4 55 5.5 ESE 30 43 16 23 1017.0 1016.7 0.0
28/11:30am 22.2 17.9 13.3 57 5.1 ESE 28 43 15 23 1017.2 1016.9 0.0
28/11:00am 22.4 18.5 13.2 56 5.3 ESE 26 41 14 22 1017.5 1017.2 0.0
28/10:30am 22.4 18.6 13.5 57 5.2 ESE 26 39 14 21 1017.4 1017.1 0.0
28/10:00am 22.3 18.0 13.1 56 5.3 ESE 28 41 15 22 1017.4 1017.1 0.0
28/09:30am 22.2 18.6 13.0 56 5.3 ESE 24 41 13 22 1017.7 1017.4 0.0
28/09:00am 21.8 18.2 12.9 57 5.1 ESE 24 37 13 20 1017.8 1017.5 0.0
28/08:30am 21.3 17.4 13.2 60 4.7 ESE 26 37 14 20 1017.6 1017.3 0.0
28/08:00am 21.1 17.9 13.0 60 4.6 E 22 35 12 19 1017.7 1017.4 0.0
28/07:30am 20.4 18.1 12.9 62 4.3 E 17 28 9 15 1017.6 1017.3 0.0
28/07:00am 20.2 17.2 12.7 62 4.2 E 20 33 11 18 1017.6 1017.3 0.0
28/06:30am 20.0 16.8 13.2 65 3.9 E 22 33 12 18 1017.3 1017.0 0.0
28/06:00am 19.1 16.1 12.1 64 3.9 ESE 19 32 10 17 1017.2 1016.9 0.0
28/05:30am 17.8 16.0 12.0 69 3.2 E 13 20 7 11 1017.0 1016.7 0.0
28/05:00am 17.4 14.8 11.9 70 3.0 E 17 30 9 16 1016.5 1016.2 0.0
28/04:30am 17.4 15.1 11.9 70 3.0 E 15 28 8 15 1016.0 1015.7 0.0
28/04:00am 17.2 14.5 11.7 70 3.0 E 17 24 9 13 1015.9 1015.6 0.0
28/03:30am 17.2 15.3 11.9 71 2.9 E 13 22 7 12 1016.0 1015.7 0.0
28/03:00am 17.8 15.3 12.3 70 3.1 E 17 26 9 14 1015.9 1015.6 0.0
28/02:30am 17.6 15.0 12.1 70 3.0 ESE 17 28 9 15 1015.7 1015.4 0.0
28/02:00am 17.4 14.7 11.7 69 3.1 ESE 17 26 9 14 1015.9 1015.6 0.0
28/01:30am 17.6 14.9 11.8 69 3.2 E 17 26 9 14 1016.1 1015.8 0.0
28/01:00am 17.2 14.0 11.2 68 3.3 ESE 19 30 10 16 1016.3 1016.0 0.0
28/12:30am 17.3 14.1 11.3 68 3.3 E 19 30 10 16 1016.6 1016.3 0.0
28/12:00am 17.8 14.5 11.6 67 3.4 E 20 30 11 16 1016.6 1016.3 0.0
 
Date/Time
WST
Temp
°C
App
Temp
°C
Dew
Point
Rel
Hum
%
Delta-T
°C
Wind Press
QNH
hPa
Press
MSL
hPa
Rain
since 9 am
mm
Dir
 
Spd
km/h
Gust
km/h
Spd
kts
Gust
kts
27/11:30pm 17.8 14.8 11.8 68 3.3 E 19 32 10 17 1016.8 1016.5 0.0
27/11:00pm 18.0 14.7 11.6 66 3.5 ESE 20 32 11 17 1016.8 1016.5 0.0
27/10:30pm 18.0 14.4 11.8 67 3.4 ESE 22 35 12 19 1017.1 1016.8 0.0
27/10:00pm 18.0 14.8 12.0 68 3.3 ESE 20 33 11 18 1017.4 1017.1 0.0
27/09:30pm 17.9 14.6 11.7 67 3.4 ESE 20 33 11 18 1017.4 1017.1 0.0
27/09:00pm 18.0 14.3 11.6 66 3.5 ESE 22 35 12 19 1017.5 1017.2 0.0
27/08:30pm 17.9 14.6 11.7 67 3.4 ESE 20 32 11 17 1017.6 1017.3 0.0
27/08:00pm 18.2 14.2 11.7 66 3.6 ESE 24 37 13 20 1017.5 1017.2 0.0
27/07:30pm 18.2 13.8 11.7 66 3.6 ESE 26 43 14 23 1017.4 1017.1 0.0
27/07:00pm 18.3 15.0 11.6 65 3.7 ESE 20 32 11 17 1017.3 1017.0 0.0
27/06:30pm 18.3 14.2 11.6 65 3.7 ESE 24 39 13 21 1017.1 1016.8 0.0
27/06:00pm 18.7 15.1 11.8 64 3.8 ESE 22 37 12 20 1016.9 1016.6 0.0
27/05:30pm 19.1 15.1 11.9 63 4.0 ESE 24 39 13 21 1016.5 1016.2 0.0
27/05:00pm 19.9 15.6 11.9 60 4.5 ESE 26 41 14 22 1016.4 1016.1 0.0
27/04:30pm 20.1 16.0 11.3 57 4.9 ESE 24 39 13 21 1016.5 1016.2 0.0
27/04:00pm 20.6 16.2 11.8 57 4.9 ESE 26 41 14 22 1016.5 1016.2 0.0
27/03:30pm 21.1 16.5 12.3 57 5.0 ESE 28 46 15 25 1016.8 1016.5 0.0
27/03:00pm 21.2 16.1 11.8 55 5.3 ESE 30 48 16 26 1016.7 1016.4 0.0
27/02:51pm 21.6 16.9 11.9 54 5.5 ESE 28 46 15 25 1016.8 1016.5 0.0
27/02:30pm 22.4 18.5 12.1 52 5.8 ESE 24 35 13 19 1016.7 1016.4 0.0
27/02:00pm 22.6 18.3 12.0 51 6.0 ESE 26 37 14 20 1016.7 1016.4 0.0
27/01:30pm 22.9 18.7 12.5 52 5.9 ESE 26 39 14 21 1016.7 1016.4 0.0
27/01:00pm 22.6 18.8 12.3 52 5.9 ESE 24 39 13 21 1017.2 1016.9 0.0
27/12:30pm 23.0 18.4 11.1 47 6.6 ESE 26 37 14 20 1017.3 1017.0 0.0
27/12:00pm 22.8 18.2 11.2 48 6.5 ESE 26 35 14 19 1017.7 1017.4 0.0
27/11:30am 22.6 18.3 10.7 47 6.6 ESE 24 41 13 22 1018.1 1017.8 0.0
27/11:00am 22.4 17.9 11.5 50 6.1 ESE 26 41 14 22 1018.2 1017.9 0.0
27/10:30am 22.0 17.7 12.0 53 5.6 ESE 26 41 14 22 1018.5 1018.2 0.0
27/10:00am 21.4 17.1 12.0 55 5.3 ESE 26 39 14 21 1018.6 1018.3 0.0
27/09:30am 22.0 18.6 11.1 50 6.1 ESE 20 35 11 19 1018.7 1018.4 0.0
27/09:00am 21.4 17.4 10.6 50 5.9 ESE 22 33 12 18 1018.9 1018.6 0.0
27/08:30am 21.0 16.6 10.5 51 5.7 ESE 24 35 13 19 1018.9 1018.6 0.0
27/08:00am 20.8 16.1 10.6 52 5.6 ESE 26 39 14 21 1018.8 1018.5 0.0
27/07:30am 19.9 16.6 10.9 56 4.9 ESE 19 32 10 17 1018.5 1018.2 0.0
27/07:00am 19.3 15.6 10.3 56 4.8 E 20 33 11 18 1018.6 1018.3 0.0
27/06:30am 19.5 16.6 11.0 58 4.7 ESE 17 28 9 15 1018.5 1018.2 0.0
27/06:00am 19.0 15.9 10.3 57 4.7 E 17 33 9 18 1018.4 1018.1 0.0
27/05:30am 17.9 14.6 11.0 64 3.7 ESE 19 28 10 15 1018.1 1017.8 0.0
27/05:00am 17.8 14.9 11.1 65 3.6 E 17 32 9 17 1017.8 1017.5 0.0
27/04:30am 17.6 14.1 10.2 62 3.9 ESE 19 32 10 17 1017.5 1017.2 0.0
27/04:00am 17.7 15.1 10.6 63 3.8 E 15 24 8 13 1017.4 1017.1 0.0
27/03:30am 17.8 14.4 10.4 62 4.0 ESE 19 28 10 15 1017.2 1016.9 0.0
27/03:00am 17.8 14.4 10.7 63 3.8 ESE 19 28 10 15 1017.4 1017.1 0.0
27/02:30am 17.8 14.7 10.4 62 4.0 ESE 17 28 9 15 1017.3 1017.0 0.0
27/02:00am 17.7 14.2 10.3 62 4.0 ESE 19 30 10 16 1017.3 1017.0 0.0
27/01:30am 17.9 14.4 10.8 63 3.8 E 20 30 11 16 1017.4 1017.1 0.0
27/01:00am 17.9 14.9 10.8 63 3.8 E 17 24 9 13 1017.5 1017.2 0.0
27/12:30am 18.1 14.7 10.7 62 4.0 ESE 19 28 10 15 1017.6 1017.3 0.0
27/12:00am 17.9 14.4 10.3 61 4.1 ESE 19 30 10 16 1017.9 1017.6 0.0
 
Date/Time
WST
Temp
°C
App
Temp
°C
Dew
Point
Rel
Hum
%
Delta-T
°C
Wind Press
QNH
hPa
Press
MSL
hPa
Rain
since 9 am
mm
Dir
 
Spd
km/h
Gust
km/h
Spd
kts
Gust
kts
26/11:30pm 18.2 14.7 10.8 62 4.0 E 20 30 11 16 1017.9 1017.6 0.0
26/11:00pm 18.1 14.7 10.7 62 4.0 ESE 19 30 10 16 1018.0 1017.7 0.0
26/10:30pm 18.0 15.1 10.9 63 3.8 ESE 17 28 9 15 1018.2 1017.9 0.0
26/10:00pm 18.0 14.6 10.4 61 4.1 ESE 19 30 10 16 1018.5 1018.2 0.0
26/09:30pm 17.8 14.3 10.2 61 4.1 ESE 19 30 10 16 1018.5 1018.2 0.0
26/09:00pm 18.2 14.7 10.1 59 4.3 ESE 19 33 10 18 1018.7 1018.4 0.0
26/08:30pm 18.3 14.8 10.2 59 4.3 ESE 19 28 10 15 1018.9 1018.6 0.0
26/08:00pm 18.4 14.7 10.3 59 4.3 ESE 20 32 11 17 1018.9 1018.6 0.0
26/07:30pm 18.5 14.9 10.6 60 4.3 ESE 20 33 11 18 1018.9 1018.6 0.0
26/07:00pm 18.5 14.8 10.3 59 4.4 ESE 20 35 11 19 1018.7 1018.4 0.0
26/06:30pm 18.6 14.4 11.2 62 4.0 ESE 24 33 13 18 1018.5 1018.2 0.0
26/06:00pm 18.7 15.3 11.3 62 4.0 SE 20 33 11 18 1018.2 1017.9 0.0
26/05:30pm 19.0 14.5 11.3 61 4.2 ESE 26 37 14 20 1018.2 1017.9 0.0
26/05:00pm 19.9 15.9 10.6 55 5.1 ESE 22 33 12 18 1018.1 1017.8 0.0
26/04:30pm 21.2 17.0 11.0 52 5.6 SE 24 35 13 19 1017.9 1017.6 0.0
26/04:00pm 20.7 16.8 10.8 53 5.4 ESE 22 37 12 20 1018.0 1017.7 0.0
26/03:30pm 21.6 16.9 10.7 50 6.0 ESE 26 37 14 20 1017.9 1017.6 0.0
26/03:00pm 21.6 17.5 10.1 48 6.3 ESE 22 35 12 19 1018.3 1018.0 0.0
26/02:30pm 21.7 17.0 9.3 45 6.7 SE 24 37 13 20 1018.4 1018.1 0.0

Other Formats:

Comma delimited format used in spreadsheet applications
http://www.bom.gov.au/fwo/IDW60801/IDW60801.94647.axf

JavaScript Object Notation format (JSON) in row-major order
http://www.bom.gov.au/fwo/IDW60801/IDW60801.94647.json